createdAt,value
2022-10-28T00:00:47.681Z,10.90
2022-10-28T00:03:14.646Z,13.50
2022-10-28T00:05:41.584Z,12.90
2022-10-28T00:08:08.509Z,10.40
2022-10-28T00:10:35.671Z,10.90
2022-10-28T00:13:02.726Z,9.90
2022-10-28T00:15:30.190Z,12.10
2022-10-28T00:17:57.428Z,11.40
2022-10-28T00:20:24.481Z,9.80
2022-10-28T00:22:53.829Z,10.70
2022-10-28T00:25:24.918Z,9.50
2022-10-28T00:27:53.050Z,10.30
2022-10-28T00:30:20.716Z,7.80
2022-10-28T00:32:47.875Z,8.60
2022-10-28T00:35:15.253Z,9.10
2022-10-28T00:37:42.210Z,9.60
2022-10-28T00:40:10.847Z,10.10
2022-10-28T00:42:38.746Z,10.30
2022-10-28T00:45:06.350Z,10.60
2022-10-28T00:47:40.253Z,8.10
2022-10-28T00:50:26.943Z,9.90
2022-10-28T00:52:56.611Z,10.60
2022-10-28T00:55:23.589Z,18.10
2022-10-28T00:57:51.553Z,10.50
2022-10-28T01:00:19.008Z,10.90
2022-10-28T01:02:47.588Z,11.10
2022-10-28T01:05:17.198Z,9.10
2022-10-28T01:07:44.844Z,9.90
2022-10-28T01:10:14.443Z,10.20
2022-10-28T01:13:11.413Z,9.30
2022-10-28T01:15:45.235Z,8.30
2022-10-28T01:18:31.127Z,11.30
2022-10-28T01:21:17.063Z,11.40
2022-10-28T01:23:44.353Z,8.80
2022-10-28T01:26:40.464Z,9.20
2022-10-28T01:29:30.752Z,8.40
2022-10-28T01:34:45.439Z,9.50
2022-10-28T01:37:54.410Z,9.30
2022-10-28T01:40:27.737Z,10.50
2022-10-28T01:43:04.241Z,8.70
2022-10-28T01:45:35.908Z,8.40
2022-10-28T01:48:09.094Z,8.50
2022-10-28T01:50:57.287Z,7.90
2022-10-28T01:53:27.490Z,7.90
2022-10-28T01:55:55.633Z,7.80
2022-10-28T01:58:24.905Z,5.90
2022-10-28T02:00:51.954Z,7.00
2022-10-28T02:03:18.995Z,7.50
2022-10-28T02:05:50.603Z,8.90
2022-10-28T02:08:22.777Z,8.70
2022-10-28T02:11:08.684Z,8.80
2022-10-28T02:13:55.504Z,8.60
2022-10-28T02:16:34.633Z,7.30
2022-10-28T02:19:03.606Z,7.60
2022-10-28T02:21:36.830Z,10.60
2022-10-28T02:24:31.904Z,10.00
2022-10-28T02:27:14.056Z,9.00
2022-10-28T02:29:45.763Z,9.60
2022-10-28T02:32:18.856Z,8.60
2022-10-28T02:34:47.068Z,7.50
2022-10-28T02:37:43.874Z,13.30
2022-10-28T02:40:14.686Z,7.20
2022-10-28T02:42:45.702Z,8.40
2022-10-28T02:45:15.733Z,6.90
2022-10-28T02:47:46.691Z,7.40
2022-10-28T02:50:17.449Z,7.00
2022-10-28T02:52:47.030Z,5.40
2022-10-28T02:55:14.199Z,5.70
2022-10-28T02:57:42.835Z,5.90
2022-10-28T03:00:12.092Z,6.00
2022-10-28T03:02:39.052Z,5.90
2022-10-28T03:05:06.404Z,6.60
2022-10-28T03:07:34.055Z,6.80
2022-10-28T03:10:01.182Z,5.30
2022-10-28T03:12:28.352Z,6.20
2022-10-28T03:14:58.323Z,6.30
2022-10-28T03:17:25.310Z,6.10
2022-10-28T03:19:53.813Z,6.80
2022-10-28T03:22:20.992Z,7.80
2022-10-28T03:24:47.946Z,8.60
2022-10-28T03:27:14.804Z,6.80
2022-10-28T03:29:45.883Z,6.80
2022-10-28T03:32:13.803Z,7.90
2022-10-28T03:34:41.964Z,9.60
2022-10-28T03:37:09.081Z,9.70
2022-10-28T03:39:36.083Z,10.00
2022-10-28T03:42:03.651Z,9.30
2022-10-28T03:44:30.809Z,5.90
2022-10-28T03:46:58.477Z,6.30
2022-10-28T03:49:26.054Z,6.50
2022-10-28T03:51:52.970Z,7.30
2022-10-28T03:54:19.974Z,6.10
2022-10-28T03:56:46.980Z,6.00
2022-10-28T03:59:16.382Z,6.40
2022-10-28T04:01:46.781Z,5.00
2022-10-28T04:04:13.816Z,4.80
2022-10-28T04:06:41.209Z,5.80
2022-10-28T04:09:08.409Z,6.30
2022-10-28T04:11:35.550Z,6.10
2022-10-28T04:14:02.965Z,6.00
2022-10-28T04:16:30.201Z,8.00
2022-10-28T04:19:03.807Z,7.30
2022-10-28T04:21:30.857Z,12.60
2022-10-28T04:23:57.838Z,10.50
2022-10-28T04:26:25.254Z,9.50
2022-10-28T04:28:52.299Z,10.30
2022-10-28T04:31:19.414Z,10.10
2022-10-28T04:33:46.501Z,7.20
2022-10-28T04:36:13.955Z,13.70
2022-10-28T04:38:40.940Z,10.90
2022-10-28T04:41:12.774Z,11.40
2022-10-28T04:43:40.705Z,13.10
2022-10-28T04:46:07.868Z,10.80
2022-10-28T04:48:35.067Z,11.80
2022-10-28T04:51:02.127Z,11.40
2022-10-28T04:53:29.182Z,9.60
2022-10-28T04:55:59.559Z,9.30
2022-10-28T04:58:27.754Z,10.70
2022-10-28T05:00:54.659Z,10.00
2022-10-28T05:03:21.728Z,9.50
2022-10-28T05:05:48.900Z,13.70
2022-10-28T05:08:16.128Z,12.60
2022-10-28T05:10:49.002Z,8.10
2022-10-28T05:13:17.373Z,10.00
2022-10-28T05:15:44.625Z,9.00
2022-10-28T05:18:12.103Z,11.10
2022-10-28T05:20:39.242Z,10.30
2022-10-28T05:23:07.876Z,15.40
2022-10-28T05:25:35.489Z,12.30
2022-10-28T05:28:02.507Z,15.30
2022-10-28T05:30:29.723Z,10.50
2022-10-28T05:33:03.310Z,11.70
2022-10-28T05:35:33.315Z,12.30
2022-10-28T05:38:00.414Z,11.20
2022-10-28T05:40:27.692Z,13.10
2022-10-28T05:42:54.953Z,10.90
2022-10-28T05:47:53.254Z,8.60
2022-10-28T05:50:20.715Z,9.40
2022-10-28T05:52:55.562Z,10.70
2022-10-28T05:55:24.047Z,11.40
2022-10-28T05:57:52.495Z,11.80
2022-10-28T06:00:21.331Z,14.70
2022-10-28T06:02:48.350Z,13.00
2022-10-28T06:05:17.077Z,7.90
2022-10-28T06:07:45.317Z,10.40
2022-10-28T06:10:12.435Z,10.30
2022-10-28T06:12:38.524Z,13.50
2022-10-28T06:15:06.270Z,12.90
2022-10-28T06:17:35.031Z,11.20
2022-10-28T06:20:02.415Z,20.50
2022-10-28T06:22:29.724Z,10.70
2022-10-28T06:24:56.909Z,21.90
2022-10-28T06:27:23.998Z,18.40
2022-10-28T06:29:51.263Z,13.20
2022-10-28T06:32:19.013Z,15.20
2022-10-28T06:34:46.038Z,13.50
2022-10-28T06:37:13.297Z,13.50
2022-10-28T06:39:43.094Z,14.70
2022-10-28T06:42:10.380Z,13.40
2022-10-28T06:44:37.827Z,14.20
2022-10-28T06:47:06.402Z,13.50
2022-10-28T06:49:33.913Z,29.40
2022-10-28T06:52:01.128Z,22.10
2022-10-28T06:54:28.141Z,13.70
2022-10-28T06:56:55.252Z,26.20
2022-10-28T06:59:22.298Z,11.10
2022-10-28T07:01:49.533Z,35.00
2022-10-28T07:04:16.629Z,27.70
2022-10-28T07:06:45.443Z,18.80
2022-10-28T07:09:15.489Z,63.80
2022-10-28T07:11:45.729Z,64.60
2022-10-28T07:14:13.317Z,38.10
2022-10-28T07:16:42.277Z,39.80
2022-10-28T07:19:10.137Z,35.70
2022-10-28T07:21:37.400Z,24.50
2022-10-28T07:24:04.813Z,24.50
2022-10-28T07:26:32.216Z,20.40
2022-10-28T07:28:59.263Z,23.80
2022-10-28T07:31:27.835Z,25.90
2022-10-28T07:33:54.843Z,16.50
2022-10-28T07:36:22.797Z,13.20
2022-10-28T07:38:51.929Z,14.60
2022-10-28T07:41:20.021Z,13.10
2022-10-28T07:43:47.071Z,14.10
2022-10-28T07:46:18.486Z,15.20
2022-10-28T07:48:46.180Z,13.60
2022-10-28T07:51:14.353Z,20.20
2022-10-28T07:53:43.899Z,18.20
2022-10-28T07:56:13.678Z,17.80
2022-10-28T07:58:42.176Z,13.10
2022-10-28T08:01:10.076Z,15.00
2022-10-28T08:03:39.031Z,17.40
2022-10-28T08:06:11.306Z,28.50
2022-10-28T08:08:38.448Z,21.60
2022-10-28T08:11:14.208Z,22.20
2022-10-28T08:13:41.184Z,19.80
2022-10-28T08:16:08.517Z,18.20
2022-10-28T08:18:36.975Z,19.40
2022-10-28T08:21:07.306Z,17.90
2022-10-28T08:23:34.508Z,14.70
2022-10-28T08:26:02.294Z,14.60
2022-10-28T08:28:29.650Z,17.10
2022-10-28T08:31:09.205Z,16.90
2022-10-28T08:33:38.747Z,18.90
2022-10-28T08:36:07.183Z,19.00
2022-10-28T08:38:34.249Z,19.20
2022-10-28T08:41:18.536Z,22.90
2022-10-28T08:44:04.698Z,19.80
2022-10-28T08:46:45.107Z,20.80
2022-10-28T08:49:13.880Z,19.50
2022-10-28T08:51:42.583Z,19.40
2022-10-28T08:54:41.950Z,20.00
2022-10-28T08:57:17.803Z,20.90
2022-10-28T08:59:45.813Z,16.50
2022-10-28T09:02:22.182Z,17.10
2022-10-28T09:05:02.650Z,15.40
2022-10-28T09:07:29.856Z,15.00
2022-10-28T09:09:56.873Z,16.00
2022-10-28T09:12:46.261Z,15.60
2022-10-28T09:15:29.033Z,13.90
2022-10-28T09:18:10.432Z,15.80
2022-10-28T09:20:54.653Z,16.60
2022-10-28T09:23:28.865Z,16.00
2022-10-28T09:26:41.033Z,15.60
2022-10-28T09:29:20.137Z,15.00
2022-10-28T09:31:56.003Z,15.80
2022-10-28T09:34:47.324Z,15.50
2022-10-28T09:37:18.498Z,13.30
2022-10-28T09:39:48.494Z,13.80
2022-10-28T09:42:27.846Z,13.60
2022-10-28T09:45:01.931Z,11.30
2022-10-28T09:47:37.714Z,10.60
2022-10-28T09:50:08.494Z,11.50
2022-10-28T09:52:43.365Z,14.40
2022-10-28T09:55:19.006Z,11.20
2022-10-28T09:57:46.161Z,18.00
2022-10-28T10:00:14.152Z,13.50
2022-10-28T10:02:42.853Z,15.20
2022-10-28T10:05:17.008Z,11.20
2022-10-28T10:07:53.972Z,9.10
2022-10-28T10:10:24.847Z,8.20
2022-10-28T10:12:52.876Z,8.70
2022-10-28T10:15:33.302Z,8.20
2022-10-28T10:18:01.014Z,7.60
2022-10-28T10:20:28.283Z,6.20
2022-10-28T10:22:56.515Z,6.10
2022-10-28T10:25:30.439Z,6.10
2022-10-28T10:27:57.917Z,7.40
2022-10-28T10:30:29.957Z,5.70
2022-10-28T10:32:57.463Z,5.00
2022-10-28T10:35:26.687Z,4.80
2022-10-28T10:37:55.615Z,4.90
2022-10-28T10:40:32.628Z,5.40
2022-10-28T10:43:18.092Z,5.00
2022-10-28T10:45:51.805Z,4.40
2022-10-28T10:48:19.039Z,4.10
2022-10-28T10:50:47.317Z,4.40
2022-10-28T10:53:18.781Z,3.70
2022-10-28T10:55:50.035Z,3.50
2022-10-28T10:58:21.169Z,3.50
2022-10-28T11:00:49.775Z,3.40
2022-10-28T11:03:25.895Z,3.20
2022-10-28T11:06:18.208Z,4.70
2022-10-28T11:08:44.366Z,9.70
2022-10-28T11:11:19.205Z,6.20
2022-10-28T11:13:48.517Z,4.90
2022-10-28T11:16:23.364Z,2.80
2022-10-28T11:18:52.116Z,2.40
2022-10-28T11:22:04.407Z,2.30
2022-10-28T11:24:55.602Z,2.00
2022-10-28T11:30:00.928Z,1.50
2022-10-28T11:32:40.250Z,1.50
2022-10-28T11:35:16.007Z,1.30
2022-10-28T11:38:08.748Z,1.80
2022-10-28T11:41:00.891Z,2.10
2022-10-28T11:43:36.568Z,1.80
2022-10-28T11:46:26.748Z,2.10
2022-10-28T11:49:12.135Z,2.00
2022-10-28T11:51:57.659Z,1.60
2022-10-28T11:54:45.098Z,1.80
2022-10-28T11:57:16.376Z,1.60
2022-10-28T12:00:29.559Z,1.70
2022-10-28T12:03:25.903Z,1.70
2022-10-28T12:06:05.087Z,1.90
2022-10-28T12:08:50.983Z,2.20
2022-10-28T12:11:46.894Z,1.80
2022-10-28T12:14:34.495Z,2.30
2022-10-28T12:17:14.821Z,1.80
2022-10-28T12:20:10.436Z,2.00
2022-10-28T12:22:58.795Z,2.10
2022-10-28T12:25:31.415Z,2.40
2022-10-28T12:28:21.019Z,2.40
2022-10-28T12:30:49.316Z,1.80
2022-10-28T12:33:28.973Z,2.00
2022-10-28T12:36:13.388Z,3.20
2022-10-28T12:39:12.400Z,3.80
2022-10-28T12:41:45.068Z,5.00
2022-10-28T12:44:14.924Z,6.10
2022-10-28T12:47:03.296Z,3.50
2022-10-28T12:49:45.779Z,4.50
2022-10-28T12:52:18.840Z,4.70
2022-10-28T12:54:57.120Z,3.20
2022-10-28T12:57:24.279Z,2.80
2022-10-28T13:00:25.939Z,3.50
2022-10-28T13:03:01.821Z,3.80
2022-10-28T13:05:37.473Z,3.40
2022-10-28T13:12:03.216Z,8.30
2022-10-28T13:15:15.597Z,3.60
2022-10-28T13:18:09.979Z,3.20
2022-10-28T13:21:14.963Z,3.30
2022-10-28T13:23:44.162Z,8.30
2022-10-28T13:26:26.463Z,4.90
2022-10-28T13:28:58.295Z,3.60
2022-10-28T13:31:45.217Z,3.00
2022-10-28T13:34:13.934Z,3.90
2022-10-28T13:36:45.569Z,3.40
2022-10-28T13:39:43.543Z,2.90
2022-10-28T13:42:13.487Z,3.30
2022-10-28T13:44:50.797Z,4.60
2022-10-28T13:47:17.760Z,6.50
2022-10-28T13:50:08.621Z,5.10
2022-10-28T13:52:42.274Z,4.50
2022-10-28T13:55:21.915Z,7.20
2022-10-28T13:57:51.429Z,6.40
2022-10-28T14:00:18.521Z,16.50
2022-10-28T14:03:01.560Z,14.80
2022-10-28T14:05:32.462Z,12.80
2022-10-28T14:08:22.458Z,19.50
2022-10-28T14:11:00.475Z,14.10
2022-10-28T14:13:27.402Z,12.90
2022-10-28T14:16:26.571Z,14.20
2022-10-28T14:19:03.454Z,18.00
2022-10-28T14:21:59.174Z,15.50
2022-10-28T14:24:33.297Z,28.30
2022-10-28T14:27:10.026Z,25.60
2022-10-28T14:29:49.239Z,21.30
2022-10-28T14:32:31.691Z,18.50
2022-10-28T14:35:11.010Z,22.20
2022-10-28T14:38:02.561Z,22.00
2022-10-28T14:40:36.220Z,21.10
2022-10-28T14:43:15.914Z,27.00
2022-10-28T14:45:52.430Z,54.30
2022-10-28T14:48:46.264Z,28.80
2022-10-28T14:51:18.346Z,44.70
2022-10-28T14:53:45.555Z,38.90
2022-10-28T14:58:50.248Z,73.90
2022-10-28T15:01:17.368Z,52.20
2022-10-28T15:03:46.939Z,47.60
2022-10-28T15:06:37.468Z,43.60
2022-10-28T15:09:22.311Z,44.30
2022-10-28T15:11:52.654Z,40.60
2022-10-28T15:14:29.595Z,48.40
2022-10-28T15:16:58.364Z,57.90
2022-10-28T15:19:27.432Z,58.70
2022-10-28T15:22:04.426Z,97.90
2022-10-28T15:24:31.568Z,92.60
2022-10-28T15:26:58.585Z,83.50
2022-10-28T15:29:25.699Z,110.30
2022-10-28T15:32:13.881Z,120.80
2022-10-28T15:34:41.320Z,125.80
2022-10-28T15:37:08.327Z,140.50
2022-10-28T15:39:35.823Z,119.40
2022-10-28T15:42:02.911Z,133.30
2022-10-28T15:44:49.697Z,127.70
2022-10-28T15:47:32.803Z,123.90
2022-10-28T15:50:17.360Z,86.90
2022-10-28T15:52:48.363Z,105.40
2022-10-28T15:57:48.032Z,140.70
2022-10-28T16:00:20.722Z,155.20
2022-10-28T16:02:55.845Z,152.70
2022-10-28T16:05:32.609Z,147.30
2022-10-28T16:08:00.976Z,180.10
2022-10-28T16:10:28.748Z,175.30
2022-10-28T16:12:55.656Z,172.30
2022-10-28T16:15:22.647Z,159.80
2022-10-28T16:17:50.386Z,190.90
2022-10-28T16:20:21.974Z,161.20
2022-10-28T16:22:49.133Z,166.90
2022-10-28T16:25:20.716Z,179.70
2022-10-28T16:30:18.609Z,160.60
2022-10-28T16:32:47.544Z,132.10
2022-10-28T16:35:16.430Z,133.20
2022-10-28T16:37:46.519Z,127.00
2022-10-28T16:40:37.538Z,72.40
2022-10-28T16:43:04.209Z,105.20
2022-10-28T16:45:31.506Z,120.60
2022-10-28T16:48:01.322Z,116.50
2022-10-28T16:50:28.299Z,85.50
2022-10-28T16:52:56.629Z,100.80
2022-10-28T16:55:23.994Z,112.40
2022-10-28T16:57:50.985Z,111.30
2022-10-28T17:00:18.588Z,108.70
2022-10-28T17:02:50.722Z,110.40
2022-10-28T17:05:22.471Z,111.50
2022-10-28T17:07:50.111Z,96.50
2022-10-28T17:10:17.445Z,97.80
2022-10-28T17:12:44.737Z,105.90
2022-10-28T17:15:17.938Z,80.60
2022-10-28T17:17:49.396Z,85.30
2022-10-28T17:20:16.704Z,84.70
2022-10-28T17:22:44.420Z,76.10
2022-10-28T17:25:11.388Z,83.90
2022-10-28T17:27:39.259Z,90.60
2022-10-28T17:30:07.277Z,85.70
2022-10-28T17:32:35.336Z,83.00
2022-10-28T17:35:02.571Z,78.80
2022-10-28T17:37:30.479Z,86.90
2022-10-28T17:39:57.448Z,81.80
2022-10-28T17:42:24.894Z,76.10
2022-10-28T17:44:52.290Z,71.30
2022-10-28T17:47:22.284Z,72.90
2022-10-28T17:49:49.476Z,72.50
2022-10-28T17:52:17.121Z,72.10
2022-10-28T17:54:45.328Z,81.10
2022-10-28T17:57:12.458Z,84.40
2022-10-28T17:59:40.428Z,81.20
2022-10-28T18:02:07.525Z,70.70
2022-10-28T18:04:36.409Z,71.20
2022-10-28T18:07:03.617Z,69.80
2022-10-28T18:09:32.360Z,75.00
2022-10-28T18:12:02.064Z,64.80
2022-10-28T18:14:29.689Z,61.10
2022-10-28T18:16:56.928Z,62.70
2022-10-28T18:19:25.441Z,54.40
2022-10-28T18:21:53.077Z,49.70
2022-10-28T18:24:23.349Z,42.40
2022-10-28T18:26:54.059Z,39.60
2022-10-28T18:29:21.018Z,60.50
2022-10-28T18:31:48.201Z,70.60
2022-10-28T18:34:16.574Z,48.40
2022-10-28T18:36:45.957Z,36.70
2022-10-28T18:39:13.138Z,34.80
2022-10-28T18:41:42.815Z,34.60
2022-10-28T18:44:14.634Z,30.80
2022-10-28T18:46:42.527Z,33.40
2022-10-28T18:49:09.475Z,35.10
2022-10-28T18:51:36.861Z,35.00
2022-10-28T18:54:04.489Z,31.90
2022-10-28T18:56:31.540Z,31.00
2022-10-28T18:58:58.927Z,31.40
2022-10-28T19:01:27.626Z,30.90
2022-10-28T19:03:59.347Z,25.20
2022-10-28T19:06:29.919Z,28.00
2022-10-28T19:08:59.583Z,28.10
2022-10-28T19:11:31.274Z,29.10
2022-10-28T19:13:59.374Z,27.80
2022-10-28T19:16:27.898Z,30.90
2022-10-28T19:18:57.194Z,30.50
2022-10-28T19:21:24.848Z,25.20
2022-10-28T19:23:52.383Z,25.70
2022-10-28T19:26:19.825Z,25.80
2022-10-28T19:28:48.374Z,25.10
2022-10-28T19:31:17.342Z,25.50
2022-10-28T19:33:45.456Z,23.70
2022-10-28T19:36:25.321Z,25.80
2022-10-28T19:41:29.801Z,21.00
2022-10-28T19:43:59.159Z,22.70
2022-10-28T19:46:30.397Z,26.30
2022-10-28T19:48:58.647Z,27.50
2022-10-28T19:51:33.587Z,27.70
2022-10-28T19:54:02.271Z,29.40
2022-10-28T19:56:30.304Z,30.20
2022-10-28T19:58:58.509Z,25.70
2022-10-28T20:01:27.746Z,28.20
2022-10-28T20:03:55.123Z,27.60
2022-10-28T20:06:23.984Z,27.80
2022-10-28T20:08:52.088Z,29.60
2022-10-28T20:11:25.766Z,26.50
2022-10-28T20:14:01.782Z,27.80
2022-10-28T20:16:29.062Z,27.60
2022-10-28T20:18:57.467Z,22.20
2022-10-28T20:21:29.558Z,25.70
2022-10-28T20:23:57.192Z,23.80
2022-10-28T20:28:55.222Z,30.60
2022-10-28T20:33:52.784Z,26.60
2022-10-28T20:36:33.015Z,28.00
2022-10-28T20:39:23.290Z,22.80
2022-10-28T20:44:18.484Z,23.90
2022-10-28T20:46:48.209Z,23.80
2022-10-28T20:49:15.634Z,23.60
2022-10-28T20:51:42.757Z,23.00
2022-10-28T20:54:09.817Z,22.30
2022-10-28T20:56:37.880Z,19.50
2022-10-28T20:59:05.122Z,18.10
2022-10-28T21:01:35.103Z,20.80
2022-10-28T21:04:05.354Z,19.40
2022-10-28T21:06:33.363Z,19.80
2022-10-28T21:09:00.432Z,18.30
2022-10-28T21:11:28.265Z,18.70
2022-10-28T21:13:59.355Z,16.20
2022-10-28T21:16:28.442Z,16.90
2022-10-28T21:18:55.598Z,18.90
2022-10-28T21:21:24.175Z,20.80
2022-10-28T21:23:52.744Z,21.30
2022-10-28T21:26:19.748Z,24.40
2022-10-28T21:28:51.895Z,26.10
2022-10-28T21:31:19.598Z,20.90
2022-10-28T21:36:22.226Z,23.00
2022-10-28T21:38:53.000Z,22.60
2022-10-28T21:43:49.290Z,20.60
2022-10-28T21:46:17.223Z,24.80
2022-10-28T21:48:45.541Z,20.30
2022-10-28T21:51:15.002Z,22.40
2022-10-28T21:56:18.300Z,21.90
2022-10-28T21:58:49.205Z,21.70
2022-10-28T22:01:21.889Z,19.80
2022-10-28T22:03:49.687Z,19.50
2022-10-28T22:06:16.718Z,15.50
2022-10-28T22:08:43.735Z,14.70
2022-10-28T22:11:15.643Z,16.80
2022-10-28T22:13:42.761Z,16.60
2022-10-28T22:16:18.938Z,16.40
2022-10-28T22:18:46.633Z,15.60
2022-10-28T22:21:25.637Z,16.70
2022-10-28T22:23:52.921Z,13.30
2022-10-28T22:26:24.689Z,13.70
2022-10-28T22:28:53.114Z,15.00
2022-10-28T22:31:25.365Z,15.00
2022-10-28T22:33:52.926Z,14.60
2022-10-28T22:36:22.212Z,14.30
2022-10-28T22:38:49.412Z,15.10
2022-10-28T22:41:18.022Z,12.70
2022-10-28T22:43:58.424Z,12.40
2022-10-28T22:46:27.768Z,14.10
2022-10-28T22:48:54.787Z,16.90
2022-10-28T22:51:21.937Z,17.90
2022-10-28T22:53:51.219Z,17.10
2022-10-28T22:56:20.749Z,18.10
2022-10-28T22:58:48.856Z,15.20
2022-10-28T23:01:17.246Z,16.70
2022-10-28T23:03:46.321Z,17.60
2022-10-28T23:06:14.909Z,17.90
2022-10-28T23:08:42.440Z,18.70
2022-10-28T23:11:13.424Z,17.90
2022-10-28T23:13:41.790Z,19.00
2022-10-28T23:16:13.983Z,16.50
2022-10-28T23:18:41.166Z,17.30
2022-10-28T23:21:21.500Z,20.70
2022-10-28T23:23:55.476Z,18.70
2022-10-28T23:26:22.554Z,15.30
2022-10-28T23:28:51.131Z,14.40
2022-10-28T23:31:18.927Z,13.20
2022-10-28T23:33:46.135Z,12.00
2022-10-28T23:36:13.892Z,11.00
2022-10-28T23:38:41.097Z,11.70
2022-10-28T23:41:10.152Z,13.10
2022-10-28T23:43:37.948Z,13.60
2022-10-28T23:46:05.766Z,12.40
2022-10-28T23:48:32.911Z,13.20
2022-10-28T23:50:59.888Z,11.70
2022-10-28T23:55:58.929Z,12.20
2022-10-28T23:58:26.134Z,14.00
